createdAt,value
2023-04-15T00:04:31.905Z,76.46
2023-04-15T00:09:34.836Z,76.44
2023-04-15T00:14:37.656Z,76.41
2023-04-15T00:19:41.175Z,76.39
2023-04-15T00:24:46.599Z,76.40
2023-04-15T00:29:49.445Z,76.60
2023-04-15T00:34:52.591Z,76.47
2023-04-15T00:39:55.900Z,76.63
2023-04-15T00:44:59.739Z,76.56
2023-04-15T00:50:02.594Z,76.62
2023-04-15T00:55:06.702Z,76.63
2023-04-15T01:00:11.610Z,76.72
2023-04-15T01:05:17.388Z,76.85
2023-04-15T01:10:20.281Z,76.82
2023-04-15T01:15:23.134Z,76.89
2023-04-15T01:20:26.072Z,77.02
2023-04-15T01:25:35.144Z,77.15
2023-04-15T01:30:38.160Z,77.23
2023-04-15T01:35:41.066Z,77.29
2023-04-15T01:40:43.819Z,77.28
2023-04-15T01:45:47.190Z,77.36
2023-04-15T01:50:50.622Z,77.50
2023-04-15T01:55:53.410Z,77.73
2023-04-15T02:00:57.200Z,77.89
2023-04-15T02:05:59.976Z,77.94
2023-04-15T02:11:02.722Z,78.06
2023-04-15T02:16:15.965Z,78.06
2023-04-15T02:21:19.108Z,78.16
2023-04-15T02:26:25.524Z,78.30
2023-04-15T02:31:28.476Z,78.09
2023-04-15T02:36:32.058Z,78.21
2023-04-15T02:41:35.251Z,78.26
2023-04-15T02:46:38.042Z,78.33
2023-04-15T02:51:40.848Z,78.33
2023-04-15T02:56:43.599Z,78.27
2023-04-15T03:01:46.517Z,78.15
2023-04-15T03:06:49.370Z,78.19
2023-04-15T03:11:53.636Z,78.14
2023-04-15T03:16:56.837Z,78.07
2023-04-15T03:21:59.638Z,77.87
2023-04-15T03:27:02.654Z,77.88
2023-04-15T03:32:05.863Z,77.85
2023-04-15T03:37:08.856Z,77.94
2023-04-15T03:42:11.965Z,77.69
2023-04-15T03:47:15.182Z,77.72
2023-04-15T03:52:17.917Z,77.66
2023-04-15T03:57:20.708Z,77.62
2023-04-15T04:02:23.638Z,77.58
2023-04-15T04:07:26.870Z,77.49
2023-04-15T04:12:29.573Z,77.38
2023-04-15T04:17:32.689Z,77.48
2023-04-15T04:22:42.466Z,77.40
2023-04-15T04:27:45.981Z,77.44
2023-04-15T04:32:53.190Z,77.29
2023-04-15T04:37:56.661Z,77.12
2023-04-15T04:43:00.059Z,76.82
2023-04-15T04:48:07.027Z,76.42
2023-04-15T04:53:10.191Z,75.98
2023-04-15T04:58:13.286Z,76.04
2023-04-15T05:03:16.312Z,75.94
2023-04-15T05:08:19.313Z,75.82
2023-04-15T05:13:22.197Z,75.90
2023-04-15T05:18:25.061Z,75.52
2023-04-15T05:23:27.889Z,75.43
2023-04-15T05:28:31.038Z,75.17
2023-04-15T05:33:33.866Z,75.26
2023-04-15T05:38:37.474Z,75.32
2023-04-15T05:43:40.709Z,75.47
2023-04-15T05:48:43.497Z,75.62
2023-04-15T05:53:46.603Z,76.03
2023-04-15T05:58:50.535Z,76.02
2023-04-15T06:03:54.315Z,76.03
2023-04-15T06:08:57.598Z,75.94
2023-04-15T06:14:00.379Z,75.83
2023-04-15T06:19:04.187Z,75.37
2023-04-15T06:24:07.292Z,74.77
2023-04-15T06:29:10.094Z,74.30
2023-04-15T06:34:12.866Z,74.01
2023-04-15T06:39:15.737Z,73.88
2023-04-15T06:44:18.764Z,73.40
2023-04-15T06:49:21.981Z,73.06
2023-04-15T06:54:24.850Z,73.07
2023-04-15T06:59:27.655Z,73.12
2023-04-15T07:04:30.590Z,73.05
2023-04-15T07:09:34.531Z,72.48
2023-04-15T07:14:37.336Z,72.39
2023-04-15T07:19:41.758Z,72.29
2023-04-15T07:24:46.762Z,71.96
2023-04-15T07:29:52.077Z,72.24
2023-04-15T07:34:54.930Z,72.39
2023-04-15T07:39:57.834Z,72.78
2023-04-15T07:45:00.738Z,72.94
2023-04-15T07:50:03.589Z,72.85
2023-04-15T07:55:10.879Z,72.90
2023-04-15T08:00:16.958Z,72.90
2023-04-15T08:05:20.351Z,72.85
2023-04-15T08:10:24.562Z,73.11
2023-04-15T08:15:31.556Z,72.99
2023-04-15T08:20:37.761Z,72.87
2023-04-15T08:25:40.571Z,72.59
2023-04-15T08:30:43.791Z,72.66
2023-04-15T08:35:47.237Z,72.70
2023-04-15T08:40:50.798Z,72.61
2023-04-15T08:45:56.034Z,72.21
2023-04-15T08:51:01.041Z,72.19
2023-04-15T08:56:07.762Z,72.21
2023-04-15T09:01:12.221Z,72.38
2023-04-15T09:06:17.414Z,72.32
2023-04-15T09:11:22.461Z,72.12
2023-04-15T09:16:25.337Z,72.12
2023-04-15T09:21:29.676Z,72.04
2023-04-15T09:26:40.530Z,71.87
2023-04-15T09:31:43.650Z,71.88
2023-04-15T09:36:47.036Z,71.81
2023-04-15T09:42:06.905Z,72.30
2023-04-15T09:47:09.748Z,72.25
2023-04-15T09:52:14.449Z,72.68
2023-04-15T09:57:17.279Z,72.70
2023-04-15T10:02:29.882Z,72.74
2023-04-15T10:07:35.323Z,73.01
2023-04-15T10:12:44.018Z,73.18
2023-04-15T10:17:51.394Z,73.48
2023-04-15T10:22:55.820Z,73.65
2023-04-15T10:28:04.659Z,73.81
2023-04-15T10:33:09.890Z,73.88
2023-04-15T10:38:42.951Z,73.90
2023-04-15T10:44:04.438Z,73.88
2023-04-15T10:49:24.502Z,73.91
2023-04-15T10:54:27.236Z,74.40
2023-04-15T11:00:04.995Z,74.73
2023-04-15T11:05:09.229Z,75.12
2023-04-15T11:10:18.166Z,75.27
2023-04-15T11:15:41.812Z,75.51
2023-04-15T11:20:57.584Z,75.50
2023-04-15T11:26:05.722Z,75.81
2023-04-15T11:31:11.421Z,76.03
2023-04-15T11:36:15.981Z,75.88
2023-04-15T11:41:24.492Z,75.80
2023-04-15T11:46:32.024Z,75.76
2023-04-15T11:51:36.071Z,75.95
2023-04-15T11:56:40.329Z,76.31
2023-04-15T12:01:46.339Z,77.31
2023-04-15T12:06:49.315Z,77.56
2023-04-15T12:11:55.416Z,78.10
2023-04-15T12:17:02.278Z,78.75
2023-04-15T12:22:08.882Z,79.58
2023-04-15T12:27:13.025Z,80.52
2023-04-15T12:32:19.781Z,81.21
2023-04-15T12:37:22.584Z,81.78
2023-04-15T12:42:25.467Z,82.18
2023-04-15T12:47:28.668Z,82.51
2023-04-15T12:52:31.639Z,83.09
2023-04-15T12:57:34.537Z,83.44
2023-04-15T13:02:37.958Z,83.84
2023-04-15T13:07:44.501Z,83.90
2023-04-15T13:12:54.592Z,84.10
2023-04-15T13:17:57.690Z,84.38
2023-04-15T13:23:00.817Z,84.35
2023-04-15T13:28:05.580Z,84.38
2023-04-15T13:33:08.874Z,84.56
2023-04-15T13:38:11.742Z,84.26
2023-04-15T13:43:14.629Z,83.80
2023-04-15T13:48:17.670Z,83.37
2023-04-15T13:53:20.902Z,83.41
2023-04-15T13:58:37.817Z,83.83
2023-04-15T14:03:40.931Z,84.25
2023-04-15T14:08:44.171Z,84.90
2023-04-15T14:13:47.414Z,85.34
2023-04-15T14:18:50.524Z,85.79
2023-04-15T14:23:54.680Z,86.52
2023-04-15T14:28:57.577Z,86.94
2023-04-15T14:34:00.651Z,87.33
2023-04-15T14:39:04.722Z,87.31
2023-04-15T14:44:09.764Z,87.95
2023-04-15T14:49:13.359Z,88.74
2023-04-15T14:54:16.246Z,88.88
2023-04-15T14:59:22.437Z,89.04
2023-04-15T15:04:27.060Z,89.31
2023-04-15T15:09:29.929Z,89.53
2023-04-15T15:14:33.036Z,89.73
2023-04-15T15:19:36.405Z,90.27
2023-04-15T15:24:41.064Z,91.04
2023-04-15T15:29:43.957Z,91.57
2023-04-15T15:34:46.774Z,91.77
2023-04-15T15:39:51.565Z,91.98
2023-04-15T15:44:55.324Z,92.15
2023-04-15T15:49:58.479Z,92.64
2023-04-15T15:55:05.861Z,93.11
2023-04-15T16:00:12.682Z,93.33
2023-04-15T16:05:16.405Z,93.32
2023-04-15T16:10:19.289Z,93.80
2023-04-15T16:15:26.384Z,94.32
2023-04-15T16:20:30.073Z,94.52
2023-04-15T16:25:35.639Z,94.94
2023-04-15T16:30:41.635Z,94.74
2023-04-15T16:35:46.057Z,94.63
2023-04-15T16:40:51.710Z,94.37
2023-04-15T16:45:55.247Z,94.52
2023-04-15T16:50:58.597Z,94.52
2023-04-15T16:56:01.621Z,94.72
2023-04-15T17:01:04.572Z,94.94
2023-04-15T17:06:07.486Z,95.09
2023-04-15T17:11:12.272Z,95.74
2023-04-15T17:16:15.201Z,96.44
2023-04-15T17:21:18.066Z,96.59
2023-04-15T17:26:22.371Z,96.88
2023-04-15T17:31:25.391Z,97.20
2023-04-15T17:36:28.885Z,97.07
2023-04-15T17:41:34.768Z,97.37
2023-04-15T17:46:37.912Z,97.55
2023-04-15T17:51:40.980Z,97.97
2023-04-15T17:56:43.849Z,98.27
2023-04-15T18:01:46.719Z,98.33
2023-04-15T18:06:53.455Z,97.53
2023-04-15T18:11:57.335Z,97.53
2023-04-15T18:17:00.648Z,97.77
2023-04-15T18:22:04.173Z,98.12
2023-04-15T18:27:07.179Z,98.24
2023-04-15T18:32:10.394Z,98.23
2023-04-15T18:37:13.186Z,98.03
2023-04-15T18:42:17.702Z,98.06
2023-04-15T18:47:20.768Z,97.72
2023-04-15T18:52:23.600Z,97.84
2023-04-15T18:57:32.558Z,98.00
2023-04-15T19:02:41.035Z,97.68
2023-04-15T19:07:44.725Z,98.04
2023-04-15T19:12:47.605Z,98.47
2023-04-15T19:17:50.506Z,98.46
2023-04-15T19:22:55.150Z,98.80
2023-04-15T19:27:59.933Z,98.73
2023-04-15T19:33:03.166Z,99.07
2023-04-15T19:38:05.922Z,99.36
2023-04-15T19:43:08.722Z,99.60
2023-04-15T19:48:11.598Z,99.89
2023-04-15T19:53:14.401Z,99.82
2023-04-15T19:58:17.245Z,99.87
2023-04-15T20:03:20.724Z,99.91
2023-04-15T20:08:23.834Z,99.97
2023-04-15T20:13:26.847Z,100.00
2023-04-15T20:18:29.692Z,99.96
2023-04-15T20:23:32.623Z,100.00
2023-04-15T20:28:36.898Z,100.00
2023-04-15T20:33:39.837Z,99.97
2023-04-15T20:38:42.715Z,100.00
2023-04-15T20:43:45.569Z,100.00
2023-04-15T20:48:49.728Z,100.00
2023-04-15T20:53:52.811Z,99.98
2023-04-15T20:58:55.986Z,99.98
2023-04-15T21:03:59.576Z,99.99
2023-04-15T21:09:02.478Z,100.00
2023-04-15T21:14:08.703Z,99.97
2023-04-15T21:19:12.460Z,99.60
2023-04-15T21:24:19.088Z,99.70
2023-04-15T21:29:22.170Z,99.84
2023-04-15T21:34:27.148Z,99.35
2023-04-15T21:39:30.052Z,99.38
2023-04-15T21:44:32.884Z,99.74
2023-04-15T21:49:35.728Z,99.49
2023-04-15T21:54:38.621Z,99.62
2023-04-15T21:59:41.454Z,99.02
2023-04-15T22:04:45.394Z,99.04
2023-04-15T22:09:48.336Z,99.30
2023-04-15T22:14:51.136Z,99.42
2023-04-15T22:19:54.071Z,99.29
2023-04-15T22:24:56.825Z,99.62
2023-04-15T22:29:59.659Z,99.68
2023-04-15T22:35:03.197Z,99.69
2023-04-15T22:40:06.717Z,99.49
2023-04-15T22:45:09.837Z,99.85
2023-04-15T22:50:13.205Z,99.97
2023-04-15T22:55:16.051Z,99.98
2023-04-15T23:00:18.959Z,100.00
2023-04-15T23:05:21.788Z,100.00
2023-04-15T23:10:24.619Z,100.00
2023-04-15T23:15:27.423Z,100.00
2023-04-15T23:20:30.302Z,99.99
2023-04-15T23:25:33.044Z,100.00
2023-04-15T23:30:35.927Z,100.00
2023-04-15T23:35:39.008Z,100.00
2023-04-15T23:40:41.815Z,100.00
2023-04-15T23:45:44.670Z,100.00
2023-04-15T23:50:47.570Z,100.00
2023-04-15T23:55:50.728Z,100.00
